SBOSBO CAG / LIEE
Speedbird OnlineSpeedbird Online CAG / LIEE

Cagliari Elmas Airport
08:43 17.3°C

Location Cagliari, Italy
Latitude: 39.251499
Longitude: 9.05428
Web Airport Website | Wikipedia
Altitude 4 Meter / 13 Feet
Distance 1,529 KM / 950 Miles
from London.
Time Zone UTC +2 hours (Europe/Rome)
Codes IATA: CAG
ICAO: LIEE
Currency £1 equals EUR 1.15
Runways
RunwayLength (m)Surface
142803Asphalt
322803Asphalt
Radio
TypeDescriptionFrequency
APPCAGLIARI APP118.75
GNDElmas GND125.425
MISCSAR123.1
TWRTWR120.6
Live ATC
METAR LIEE 060620Z 34003KT CAVOK 16/15 Q1026
TAF TAF LIEE 060500Z 0606/0706 VRB05KT 9999 FEW030 BECMG 0608/0610 14010KT BECMG 0617/0619 VRB05KT
Weather As Of 06 Oct 2022 08:43
Description Clear sky
Wind 6 km/h from North (340°)
Cloud Cover 0%
Precipitation Rain: none, Snow: none
Sunrise 07:24
Sunset 18:59
Rotations During the last 90 days there were
71 flights from LGW
71 flights to LGW


© 2017-2022 Speedbird Online